Terminal Aerodrome Forecast
Issued by NWS

Home | Current Version | Previous Version | Text Only | Print | Product List | Glossary On
Versions: 1 2 3 4 5 6 7 8 9 10 11 12 13 14
000
FTUS45 KVEF 220500
TAFEED
TAF
KEED 220524Z 2206/2306 24008KT P6SM SKC
     FM221300 VRB05KT P6SM SKC
     FM221900 21008KT P6SM SKC
     FM230300 24008KT P6SM SKC=

USA.gov is the U.S. government's official web portal to all federal, state and local government web resources and services.